Terminal Aerodrome Forecast
Issued by NWS Pueblo, CO

Home | Current Version | Previous Version | Text Only | Print | Product List | Glossary On
Versions: 1 2 3 4 5 6 7 8 9 10 11 12 13 14 15 16 17 18 19 20 21 22 23 24 25 26 27
000
FTUS45 KPUB 221846 AAA
TAFALS
TAF AMD
KALS 221846Z 2219/2318 02007KT P6SM -SN SCT020 BKN050 OVC130
      TEMPO 2219/2222 5SM -SN BR BKN020
     FM222200 32010KT P6SM -SHSN SCT030 BKN060
     FM230000 34010KT 5SM BR VCSH OVC030
     FM230700 VRB06KT P6SM SCT030 BKN100
     FM231600 01010KT P6SM FEW070 SCT150=

USA.gov is the U.S. government's official web portal to all federal, state and local government web resources and services.